Time;durP1;ratioP1;P1;durP2;ratioP2;P2;SDS_P1;SDS_P2;PMS_P1;PMS_P2;Temp;Humidity;BMP_temperature;BMP_pressure;BME280_temperature;BME280_humidity;BME280_pressure;Samples;Min_cycle;Max_cycle;Signal;HPM_P1;HPM_P2
2022/06/07 00:00:28;;;;;;;10.00;4.20;;;;;;;19.59;44.98;99425.17;24931;1320;3027011;-64
2022/06/07 00:02:58;;;;;;;12.50;3.60;;;;;;;19.79;45.04;99421.30;24955;1319;3027377;-63
2022/06/07 00:05:29;;;;;;;9.50;3.50;;;;;;;19.61;45.34;99417.33;25041;1319;3026789;-62
2022/06/07 00:07:59;;;;;;;10.50;3.80;;;;;;;19.54;45.61;99416.07;24974;1319;3026469;-64
2022/06/07 00:10:29;;;;;;;12.60;3.80;;;;;;;19.50;45.68;99416.70;24690;1319;3513028;-60
2022/06/07 00:12:58;;;;;;;6.70;3.40;;;;;;;19.44;45.94;99421.17;25120;1316;3028188;-64
2022/06/07 00:15:29;;;;;;;11.30;3.40;;;;;;;19.37;45.89;99416.83;25086;1319;3052848;-62
2022/06/07 00:17:58;;;;;;;10.00;3.50;;;;;;;19.32;45.60;99412.70;25074;1316;3026313;-63
2022/06/07 00:20:27;;;;;;;8.10;3.40;;;;;;;19.28;45.41;99413.98;25061;1314;3057139;-63
2022/06/07 00:22:58;;;;;;;14.40;3.40;;;;;;;19.25;45.67;99413.95;25142;1316;3026807;-62
2022/06/07 00:25:27;;;;;;;13.10;4.10;;;;;;;19.20;46.05;99415.36;25125;1316;3051820;-61
2022/06/07 00:27:57;;;;;;;13.10;4.00;;;;;;;19.13;46.25;99415.45;25110;1316;3026562;-63
2022/06/07 00:30:27;;;;;;;10.10;4.80;;;;;;;19.12;46.10;99412.92;25069;1316;3026401;-60
2022/06/07 00:32:57;;;;;;;10.40;4.00;;;;;;;19.09;46.31;99412.63;25097;1318;3054116;-62
2022/06/07 00:35:26;;;;;;;10.00;3.90;;;;;;;19.04;46.46;99414.16;25115;1316;3026791;-61
2022/06/07 00:37:55;;;;;;;10.70;4.00;;;;;;;19.02;46.80;99418.27;25077;1316;3054921;-64
2022/06/07 00:40:24;;;;;;;10.00;3.90;;;;;;;19.01;46.63;99421.81;25119;1316;3026355;-62
2022/06/07 00:42:54;;;;;;;12.60;3.40;;;;;;;18.98;46.68;99422.64;25023;1316;3051568;-64
2022/06/07 00:45:23;;;;;;;13.80;3.70;;;;;;;18.95;47.24;99420.08;25089;1316;3026515;-62
2022/06/07 00:47:53;;;;;;;11.20;3.50;;;;;;;18.91;47.11;99423.23;25151;1319;3071159;-61
2022/06/07 00:50:27;;;;;;;9.90;3.80;;;;;;;18.90;46.84;99423.11;25310;1315;3026337;-61
2022/06/07 00:52:56;;;;;;;12.90;4.00;;;;;;;18.88;47.04;99419.81;25207;1316;3051231;-61
2022/06/07 00:55:25;;;;;;;10.70;3.60;;;;;;;18.79;47.44;99414.80;25113;1316;3027119;-63
2022/06/07 00:57:56;;;;;;;12.20;3.40;;;;;;;18.74;47.53;99414.88;25096;1316;3026834;-62
2022/06/07 01:00:37;;;;;;;17.60;3.60;;;;;;;18.70;48.25;99412.45;25127;1316;3049886;-62
2022/06/07 01:03:06;;;;;;;13.60;3.40;;;;;;;18.68;48.16;99409.30;25092;1316;3028215;-62
2022/06/07 01:05:35;;;;;;;10.20;3.40;;;;;;;18.66;48.68;99406.99;25075;1316;3056613;-62
2022/06/07 01:11:03;;;;;;;12.00;4.00;;;;;;;18.59;48.90;99409.76;25103;1319;3054799;-61
2022/06/07 01:13:34;;;;;;;12.90;3.70;;;;;;;18.56;48.59;99410.39;25112;1316;3026498;-60
2022/06/07 01:16:17;;;;;;;13.50;4.70;;;;;;;18.50;49.63;99412.00;25097;1315;3052004;-62
2022/06/07 01:18:48;;;;;;;13.30;3.90;;;;;;;18.45;49.58;99422.42;25081;1316;3026522;-61
2022/06/07 01:21:41;;;;;;;9.00;3.20;;;;;;;18.43;49.21;99419.23;25070;1316;3051316;-62
2022/06/07 01:24:13;;;;;;;8.10;3.20;;;;;;;18.41;49.06;99417.86;25088;1316;3026629;-60
2022/06/07 01:27:01;;;;;;;22.50;7.00;;;;;;;18.38;49.30;99420.64;25148;1316;3049039;-61
2022/06/07 01:29:30;;;;;;;15.00;4.40;;;;;;;18.34;49.24;99420.98;25075;1316;3026318;-63
2022/06/07 01:32:01;;;;;;;17.30;4.10;;;;;;;18.33;48.98;99419.54;25107;1316;3027539;-59
2022/06/07 01:34:32;;;;;;;8.80;3.70;;;;;;;18.30;49.16;99418.36;25115;1316;3028722;-61
2022/06/07 01:37:00;;;;;;;8.20;3.40;;;;;;;18.26;49.36;99420.83;25129;1316;3026321;-62
2022/06/07 01:42:21;;;;;;;10.30;4.00;;;;;;;18.20;50.03;99425.48;25117;1316;3050847;-59
2022/06/07 01:44:50;;;;;;;15.80;4.00;;;;;;;18.16;49.36;99423.72;25051;1316;3026801;-61
2022/06/07 01:47:22;;;;;;;13.40;3.70;;;;;;;18.16;49.47;99421.41;25063;1314;3026624;-60
2022/06/07 01:49:55;;;;;;;11.90;4.10;;;;;;;18.11;50.20;99424.87;25120;1316;3051318;-64
2022/06/07 01:52:26;;;;;;;9.90;4.10;;;;;;;18.04;50.32;99427.82;25040;1316;3025891;-63
2022/06/07 01:54:59;;;;;;;9.60;3.90;;;;;;;18.00;50.32;99428.38;25129;1316;3060079;-65
2022/06/07 01:57:29;;;;;;;9.80;4.50;;;;;;;17.97;50.50;99422.83;25080;1318;3029022;-63
2022/06/07 02:00:00;;;;;;;9.00;4.20;;;;;;;18.01;49.57;99424.06;25094;1316;3027065;-63
2022/06/07 02:02:30;;;;;;;7.90;4.00;;;;;;;18.06;49.18;99427.84;25074;1316;3027637;-63
2022/06/07 02:04:59;;;;;;;10.10;4.40;;;;;;;18.08;48.93;99429.75;25093;1314;3026306;-58
2022/06/07 02:07:29;;;;;;;12.50;4.20;;;;;;;18.10;48.61;99429.89;25054;1316;3054138;-60
2022/06/07 02:10:03;;;;;;;12.90;4.10;;;;;;;18.12;48.83;99431.86;25150;1316;3026625;-60
2022/06/07 02:12:34;;;;;;;8.50;4.50;;;;;;;18.16;48.65;99425.84;25050;1316;3026531;-63
2022/06/07 02:15:04;;;;;;;10.60;4.00;;;;;;;18.18;48.25;99431.50;25041;1316;3026765;-60
2022/06/07 02:17:36;;;;;;;10.40;3.40;;;;;;;18.20;48.17;99429.38;25040;1315;3026634;-64
2022/06/07 02:20:41;;;;;;;9.50;4.10;;;;;;;18.22;48.22;99435.04;24919;1322;3055445;-61
2022/06/07 02:23:10;;;;;;;11.10;3.60;;;;;;;18.25;48.22;99436.52;25033;1313;3026594;-60
2022/06/07 02:25:44;;;;;;;10.10;4.10;;;;;;;18.26;48.58;99437.63;25106;1316;3026487;-63
2022/06/07 02:28:16;;;;;;;8.70;4.20;;;;;;;18.26;48.93;99440.12;25062;1316;3055270;-64
2022/06/07 02:30:45;;;;;;;18.60;4.70;;;;;;;18.23;49.45;99436.21;25089;1319;3026101;-61
2022/06/07 02:33:14;;;;;;;9.30;3.80;;;;;;;18.21;49.73;99438.37;25068;1316;3026614;-62
2022/06/07 02:35:55;;;;;;;11.10;4.10;;;;;;;18.19;49.73;99442.06;25097;1319;3055600;-61
2022/06/07 02:38:25;;;;;;;12.20;4.60;;;;;;;18.20;49.31;99439.66;25095;1316;3029904;-63
2022/06/07 02:40:54;;;;;;;13.60;4.50;;;;;;;18.22;49.09;99438.37;25033;1316;3027224;-59
2022/06/07 02:43:23;;;;;;;14.10;4.40;;;;;;;18.23;49.56;99440.65;25128;1316;3026473;-62
2022/06/07 02:45:53;;;;;;;11.90;4.80;;;;;;;18.24;48.99;99439.84;25123;1315;3026355;-61
2022/06/07 02:48:22;;;;;;;12.60;4.10;;;;;;;18.24;49.85;99442.58;25017;1316;3052093;-62
2022/06/07 02:50:52;;;;;;;11.80;4.50;;;;;;;18.24;49.45;99441.19;25054;1316;3026739;-65
2022/06/07 02:53:22;;;;;;;12.20;4.20;;;;;;;18.26;49.41;99441.02;25055;1316;3027233;-61
2022/06/07 02:55:51;;;;;;;13.10;5.20;;;;;;;18.29;49.16;99446.05;25093;1316;3026641;-62
2022/06/07 02:58:24;;;;;;;12.80;4.30;;;;;;;18.35;49.04;99450.02;25053;1316;3055457;-62
2022/06/07 03:00:55;;;;;;;11.70;4.80;;;;;;;18.42;48.50;99450.56;25020;1316;3026530;-62
2022/06/07 03:03:26;;;;;;;11.80;4.40;;;;;;;18.46;48.44;99452.14;25073;1316;3026530;-61
2022/06/07 03:05:56;;;;;;;8.50;4.90;;;;;;;18.50;48.64;99448.27;25142;1316;3028159;-61
2022/06/07 03:08:25;;;;;;;7.70;4.40;;;;;;;18.52;48.52;99452.14;25139;1316;3026139;-61
2022/06/07 03:11:02;;;;;;;11.00;4.90;;;;;;;18.54;48.03;99453.89;25027;1316;3054247;-62
2022/06/07 03:13:31;;;;;;;17.90;5.50;;;;;;;18.59;48.26;99450.36;25132;1316;3026189;-59
2022/06/07 03:16:00;;;;;;;11.80;5.30;;;;;;;18.61;48.29;99453.60;25059;1316;3026490;-58
2022/06/07 03:18:30;;;;;;;9.90;5.20;;;;;;;18.59;48.80;99451.08;25050;1316;3026892;-61
2022/06/07 03:20:59;;;;;;;17.80;8.70;;;;;;;18.64;48.67;99452.41;25082;1316;3026736;-62
2022/06/07 03:23:28;;;;;;;14.60;6.20;;;;;;;18.69;48.41;99449.11;25032;1316;3051163;-60
2022/06/07 03:26:11;;;;;;;17.20;7.10;;;;;;;18.73;48.59;99447.13;25061;1316;3052565;-58
2022/06/07 03:28:46;;;;;;;16.60;5.80;;;;;;;18.76;48.22;99446.95;25040;1316;3053193;-62
2022/06/07 03:31:17;;;;;;;15.10;5.60;;;;;;;18.83;48.29;99448.14;25096;1316;3026343;-61
2022/06/07 03:33:48;;;;;;;20.40;7.30;;;;;;;18.86;48.06;99451.72;25038;1316;3026234;-61
2022/06/07 03:36:24;;;;;;;17.70;6.60;;;;;;;18.92;47.99;99453.00;25116;1315;3026915;-62
2022/06/07 03:38:55;;;;;;;16.40;6.90;;;;;;;18.96;47.95;99450.14;25061;1316;3054930;-63
2022/06/07 03:41:26;;;;;;;19.50;7.40;;;;;;;19.00;47.84;99455.95;25048;1316;3026903;-60
2022/06/07 03:44:01;;;;;;;18.70;6.60;;;;;;;19.05;47.98;99453.48;25102;1316;3049038;-62
2022/06/07 03:46:33;;;;;;;23.80;6.80;;;;;;;19.09;48.21;99456.70;25118;1315;3026162;-60
2022/06/07 03:49:03;;;;;;;14.40;6.20;;;;;;;19.11;48.40;99455.21;25098;1316;3027703;-60
2022/06/07 03:51:32;;;;;;;18.10;6.90;;;;;;;19.14;48.35;99456.23;25144;1316;3026430;-60
2022/06/07 03:54:03;;;;;;;16.20;7.10;;;;;;;19.19;48.11;99459.66;25084;1316;3055643;-61
2022/06/07 03:56:33;;;;;;;23.20;7.50;;;;;;;19.23;47.73;99460.79;25070;1316;3026607;-61
2022/06/07 03:59:04;;;;;;;21.30;7.70;;;;;;;19.30;47.62;99460.14;25057;1316;3026648;-62
2022/06/07 04:01:33;;;;;;;20.70;6.90;;;;;;;19.35;47.74;99456.86;25100;1316;3027292;-59
2022/06/07 04:04:04;;;;;;;15.40;7.60;;;;;;;19.40;47.82;99458.63;25093;1316;3026833;-64
2022/06/07 04:09:41;;;;;;;22.40;9.00;;;;;;;19.46;47.99;99457.91;25049;1316;3050463;-62
2022/06/07 04:12:15;;;;;;;23.80;9.10;;;;;;;19.54;47.69;99457.86;25117;1316;3054644;-63
2022/06/07 04:14:46;;;;;;;24.90;8.20;;;;;;;19.60;47.50;99457.23;25104;1316;3026965;-62
2022/06/07 04:17:15;;;;;;;21.50;8.30;;;;;;;19.64;47.37;99459.50;25091;1316;3026212;-63
2022/06/07 04:19:49;;;;;;;23.10;8.30;;;;;;;19.69;47.36;99459.91;25111;1316;3027409;-61
2022/06/07 04:22:18;;;;;;;29.80;8.00;;;;;;;19.69;47.65;99458.63;25029;1316;3027206;-62
2022/06/07 04:24:55;;;;;;;20.50;8.30;;;;;;;19.82;47.34;99470.42;25075;1316;3054358;-60
2022/06/07 04:27:25;;;;;;;18.70;8.50;;;;;;;19.87;47.11;99469.90;25111;1316;3026484;-61
2022/06/07 04:29:57;;;;;;;21.10;8.40;;;;;;;19.93;47.15;99474.59;25139;1316;3026597;-60
2022/06/07 04:32:26;;;;;;;22.70;8.80;;;;;;;19.97;46.95;99476.20;25087;1316;3026884;-63
2022/06/07 04:34:56;;;;;;;19.40;7.60;;;;;;;20.03;46.67;99480.38;25036;1316;3026732;-61
2022/06/07 04:37:26;;;;;;;24.30;8.10;;;;;;;20.11;46.36;99482.55;25040;1316;3026463;-61
2022/06/07 04:40:00;;;;;;;;;;;;;;;20.21;46.10;99480.48;25073;1314;3052539;-60
2022/06/07 04:42:29;;;;;;;22.40;7.40;;;;;;;20.23;46.27;99477.33;25053;1316;3026283;-62
2022/06/07 04:45:14;;;;;;;24.10;8.30;;;;;;;20.28;46.27;99476.42;25052;1316;3052897;-61
2022/06/07 04:47:52;;;;;;;19.80;7.20;;;;;;;20.35;46.20;99474.02;25117;1316;3069391;-61
2022/06/07 04:50:22;;;;;;;24.40;8.50;;;;;;;20.41;46.62;99472.28;25041;1316;3027006;-62
2022/06/07 04:52:51;;;;;;;29.40;8.30;;;;;;;20.48;46.61;99471.06;25094;1314;3053851;-60
2022/06/07 04:55:20;;;;;;;22.50;8.80;;;;;;;20.55;46.45;99470.38;25042;1316;3026423;-61
2022/06/07 04:57:51;;;;;;;28.20;8.70;;;;;;;20.59;47.22;99473.70;25093;1316;3027285;-60
2022/06/07 05:00:22;;;;;;;26.60;8.30;;;;;;;20.66;47.14;99477.60;25105;1316;3026591;-64
2022/06/07 05:02:58;;;;;;;28.90;8.70;;;;;;;20.73;46.64;99480.65;25109;1315;3054592;-61
2022/06/07 05:05:29;;;;;;;20.10;7.70;;;;;;;20.82;46.62;99484.87;25116;1316;3026375;-61
2022/06/07 05:07:58;;;;;;;24.00;7.50;;;;;;;20.89;45.53;99483.80;25058;1316;3026765;-62
2022/06/07 05:10:27;;;;;;;19.20;6.70;;;;;;;20.97;45.14;99480.86;25084;1316;3026119;-61
2022/06/07 05:13:01;;;;;;;;;;;;;;;21.05;44.74;99486.41;25084;1316;3051024;-61
2022/06/07 05:15:32;;;;;;;20.60;6.70;;;;;;;21.07;44.85;99486.24;25121;1316;3026558;-61
2022/06/07 05:18:07;;;;;;;18.70;6.80;;;;;;;21.08;44.47;99493.20;25090;1315;3051049;-59
2022/06/07 05:20:37;;;;;;;21.00;6.40;;;;;;;21.16;44.43;99492.17;25115;1316;3027940;-63
2022/06/07 05:23:14;;;;;;;23.90;7.10;;;;;;;21.20;44.32;99493.21;25108;1316;3055613;-60
2022/06/07 05:25:59;;;;;;;21.10;8.00;;;;;;;21.25;44.50;99495.88;25288;1316;3026851;-60
2022/06/07 05:28:28;;;;;;;23.70;7.50;;;;;;;21.33;44.66;99493.46;25272;1315;3052035;-62
2022/06/07 05:30:59;;;;;;;17.80;7.40;;;;;;;21.42;44.70;99494.35;25161;1316;3026224;-62
2022/06/07 05:33:39;;;;;;;23.40;7.70;;;;;;;21.53;44.62;99495.71;25090;1315;3053896;-60
2022/06/07 05:36:09;;;;;;;31.50;8.80;;;;;;;21.57;44.30;99498.27;25137;1316;3028121;-63
2022/06/07 05:38:39;;;;;;;23.70;8.90;;;;;;;21.63;44.42;99496.61;25114;1315;3055178;-64
2022/06/07 05:41:24;;;;;;;25.30;8.20;;;;;;;21.71;44.81;99493.25;25147;1316;3053843;-61
2022/06/07 05:43:55;;;;;;;24.00;7.50;;;;;;;21.75;44.35;99493.09;25104;1316;3068500;-61
2022/06/07 05:46:31;;;;;;;29.50;9.30;;;;;;;21.84;43.83;99491.89;25139;1316;3050330;-62
2022/06/07 05:49:04;;;;;;;19.60;7.40;;;;;;;21.91;43.10;99494.68;25066;1313;3026543;-61
2022/06/07 05:51:50;;;;;;;20.90;8.80;;;;;;;21.93;43.19;99491.80;25089;1316;3052384;-61
2022/06/07 05:54:20;;;;;;;20.10;7.60;;;;;;;21.97;42.99;99494.23;25052;1316;3026834;-60
2022/06/07 05:56:49;;;;;;;20.50;7.40;;;;;;;22.05;43.09;99494.42;25057;1316;3026689;-61
2022/06/07 05:59:19;;;;;;;22.80;9.00;;;;;;;22.10;42.25;99499.73;25113;1316;3026997;-62
2022/06/07 06:01:48;;;;;;;16.80;7.70;;;;;;;22.16;42.51;99497.13;25116;1315;3026291;-62
2022/06/07 06:04:19;;;;;;;19.50;7.80;;;;;;;22.25;42.85;99499.03;25122;1316;3052646;-62
2022/06/07 06:06:58;;;;;;;23.70;7.30;;;;;;;22.38;42.69;99503.38;25102;1316;3026811;-62
2022/06/07 06:12:19;;;;;;;16.10;6.50;;;;;;;22.59;42.31;99498.19;25089;1316;3068994;-64
2022/06/07 06:15:07;;;;;;;15.40;6.20;;;;;;;22.66;42.19;99496.57;25103;1316;3051498;-62
2022/06/07 06:17:37;;;;;;;25.60;7.80;;;;;;;22.72;42.00;99496.05;25128;1315;3026268;-63
2022/06/07 06:20:15;;;;;;;28.00;7.80;;;;;;;22.80;41.71;99499.81;25121;1316;3052621;-62
2022/06/07 06:22:49;;;;;;;21.40;7.30;;;;;;;22.84;41.71;99496.45;25078;1316;3056727;-61
2022/06/07 06:25:19;;;;;;;21.90;6.70;;;;;;;22.90;41.95;99492.66;25119;1316;3026552;-63
2022/06/07 06:27:49;;;;;;;25.90;7.10;;;;;;;22.98;41.68;99498.11;25080;1316;3052065;-61
2022/06/07 06:30:20;;;;;;;31.00;8.70;;;;;;;23.11;41.04;99495.80;25097;1314;3026599;-64
2022/06/07 06:32:59;;;;;;;27.70;6.80;;;;;;;23.11;40.72;99498.67;25113;1316;3052100;-63
2022/06/07 06:35:29;;;;;;;30.20;8.30;;;;;;;23.07;40.78;99494.94;25106;1316;3027030;-61
2022/06/07 06:37:58;;;;;;;29.40;9.40;;;;;;;23.13;40.79;99495.80;25076;1316;3026439;-62
2022/06/07 06:40:28;;;;;;;20.00;7.30;;;;;;;23.24;40.49;99495.23;25040;1316;3027129;-62
2022/06/07 06:43:03;;;;;;;12.90;4.00;;;;;;;23.35;38.91;99499.56;25094;1314;3053773;-63
2022/06/07 06:45:47;;;;;;;8.00;3.10;;;;;;;23.43;36.58;99498.66;25106;1316;3054301;-63
2022/06/07 06:48:21;;;;;;;9.30;3.90;;;;;;;23.43;37.12;99500.77;25104;1316;3026592;-62
2022/06/07 06:50:59;;;;;;;11.10;3.40;;;;;;;23.57;37.46;99496.70;25082;1316;3026526;-63
2022/06/07 06:53:28;;;;;;;10.60;3.50;;;;;;;23.68;36.47;99497.44;25062;1316;3052390;-63
2022/06/07 06:55:59;;;;;;;13.70;3.00;;;;;;;23.64;36.13;99495.90;25101;1315;3026876;-61
2022/06/07 06:58:29;;;;;;;7.60;2.80;;;;;;;23.77;36.40;99502.60;25121;1315;3026720;-61
2022/06/07 07:01:10;;;;;;;12.00;2.60;;;;;;;23.90;35.61;99497.55;25114;1316;3026357;-63
2022/06/07 07:03:40;;;;;;;12.00;2.30;;;;;;;24.01;35.68;99497.20;25046;1316;3052995;-63
2022/06/07 07:06:11;;;;;;;5.60;2.40;;;;;;;24.04;34.96;99498.79;25053;1316;3026249;-62
2022/06/07 07:08:41;;;;;;;11.90;2.40;;;;;;;24.07;35.04;99499.37;25050;1316;3026589;-62
2022/06/07 07:11:23;;;;;;;9.50;2.70;;;;;;;24.09;35.26;99494.58;25128;1316;3026824;-62
2022/06/07 07:13:54;;;;;;;10.50;2.90;;;;;;;24.19;34.79;99495.14;25077;1315;3054319;-60
2022/06/07 07:16:27;;;;;;;8.10;2.50;;;;;;;24.20;34.78;99493.88;25043;1316;3026765;-62
2022/06/07 07:18:58;;;;;;;9.20;2.40;;;;;;;24.30;35.13;99495.02;25048;1316;3049001;-62
2022/06/07 07:21:34;;;;;;;9.80;2.50;;;;;;;24.36;35.00;99495.63;25117;1316;3028595;-64
2022/06/07 07:24:06;;;;;;;8.30;3.00;;;;;;;24.43;35.00;99493.92;25082;1316;3053269;-62
2022/06/07 07:26:37;;;;;;;7.40;2.80;;;;;;;24.44;35.45;99497.91;25098;1316;3026443;-63
2022/06/07 07:29:07;;;;;;;9.40;2.70;;;;;;;24.56;34.97;99499.61;25767;1315;3026777;-62
2022/06/07 07:31:36;;;;;;;4.30;2.60;;;;;;;24.67;34.47;99501.12;25514;1314;3026521;-61
2022/06/07 07:34:08;;;;;;;6.80;2.30;;;;;;;24.72;34.23;99496.94;25076;1315;3056008;-64
2022/06/07 07:36:41;;;;;;;5.40;1.90;;;;;;;24.59;33.97;99504.38;25109;1315;3026724;-60
2022/06/07 07:39:10;;;;;;;7.50;2.50;;;;;;;24.67;33.32;99498.23;25073;1316;3026668;-58
2022/06/07 07:41:40;;;;;;;9.00;2.10;;;;;;;24.79;33.39;99500.27;25087;1315;3028221;-61
2022/06/07 07:44:11;;;;;;;12.30;2.80;;;;;;;24.78;33.77;99495.00;25021;1315;3049296;-60
2022/06/07 07:46:43;;;;;;;7.90;2.40;;;;;;;24.79;33.86;99495.60;25108;1316;3028589;-62
2022/06/07 07:49:13;;;;;;;6.50;2.70;;;;;;;24.84;33.76;99491.00;25024;1315;3027168;-58
2022/06/07 07:51:44;;;;;;;7.40;2.20;;;;;;;24.92;32.92;99496.73;25054;1315;3026606;-58
2022/06/07 07:54:15;;;;;;;9.20;2.60;;;;;;;25.09;33.01;99498.54;25044;1315;3025907;-58
2022/06/07 07:56:44;;;;;;;7.80;2.20;;;;;;;25.19;32.58;99494.84;25084;1316;3026904;-60
2022/06/07 07:59:15;;;;;;;4.60;1.80;;;;;;;25.24;32.04;99494.17;25031;1315;3026730;-58
2022/06/07 08:01:44;;;;;;;10.20;1.90;;;;;;;25.28;31.08;99491.00;25095;1315;3026184;-60
2022/06/07 08:04:13;;;;;;;4.00;1.70;;;;;;;25.32;30.91;99487.20;25078;1315;3027388;-59
2022/06/07 08:06:50;;;;;;;5.20;1.60;;;;;;;25.41;31.23;99484.52;25038;1315;3055394;-61
2022/06/07 08:09:20;;;;;;;7.00;1.90;;;;;;;25.53;31.24;99482.54;25102;1315;3026650;-58
2022/06/07 08:11:49;;;;;;;11.80;2.00;;;;;;;25.55;30.65;99477.42;25078;1315;3053322;-58
2022/06/07 08:14:18;;;;;;;7.40;2.20;;;;;;;25.36;30.90;99480.80;25108;1315;3026812;-62
2022/06/07 08:16:49;;;;;;;8.00;2.40;;;;;;;25.41;31.40;99485.05;25045;1315;3048573;-61
2022/06/07 08:19:18;;;;;;;9.90;2.60;;;;;;;25.51;31.74;99484.36;25045;1316;3026984;-58
2022/06/07 08:21:47;;;;;;;16.70;2.60;;;;;;;25.62;31.86;99483.67;25101;1316;3026986;-58
2022/06/07 08:24:19;;;;;;;9.80;2.60;;;;;;;25.76;31.41;99482.12;25056;1316;3050570;-57
2022/06/07 08:26:49;;;;;;;9.70;2.10;;;;;;;25.88;31.47;99476.92;25090;1315;3026585;-62
2022/06/07 08:29:20;;;;;;;16.40;3.00;;;;;;;25.98;31.74;99479.39;25185;1315;3026274;-61
2022/06/07 08:31:49;;;;;;;6.50;2.70;;;;;;;25.85;31.24;99475.33;25090;1316;3027406;-62
2022/06/07 08:39:55;;;;;;;8.90;2.70;;;;;;;26.10;32.26;99475.42;25049;1315;3059477;-60
2022/06/07 08:42:31;;;;;;;5.50;2.30;;;;;;;26.21;31.77;99469.71;25092;1316;3026894;-61
2022/06/07 08:45:03;;;;;;;5.80;2.10;;;;;;;26.33;31.28;99469.14;25075;1316;3053202;-57
2022/06/07 08:47:52;;;;;;;6.70;2.10;;;;;;;26.40;30.75;99467.98;25104;1316;3026427;-62
2022/06/07 08:50:23;;;;;;;5.40;2.30;;;;;;;26.49;30.83;99463.27;25083;1315;3071586;-62
2022/06/07 08:53:01;;;;;;;12.90;2.90;;;;;;;26.47;31.10;99459.82;25096;1315;3028610;-59
2022/06/07 08:55:36;;;;;;;10.80;2.80;;;;;;;26.49;31.27;99458.98;25086;1314;3052237;-62
2022/06/07 08:58:36;;;;;;;6.10;2.70;;;;;;;26.52;31.56;99456.66;25092;1316;3055654;-60
2022/06/07 09:01:23;;;;;;;5.10;2.30;;;;;;;26.44;31.28;99460.39;25108;1314;3059083;-59
2022/06/07 09:04:02;;;;;;;9.70;2.40;;;;;;;26.52;31.26;99450.36;25107;1315;3053256;-64
2022/06/07 09:06:34;;;;;;;6.10;2.60;;;;;;;26.65;31.09;99452.80;25098;1315;3054037;-62
2022/06/07 09:09:04;;;;;;;7.90;2.30;;;;;;;26.70;31.06;99450.95;25077;1315;3026585;-59
2022/06/07 09:14:42;;;;;;;6.80;2.30;;;;;;;26.93;30.51;99451.57;25073;1316;3051207;-60
2022/06/07 09:17:15;;;;;;;4.90;2.00;;;;;;;27.01;29.87;99447.46;25172;1316;3055149;-61
2022/06/07 09:19:45;;;;;;;5.90;2.20;;;;;;;26.94;29.86;99447.23;25041;1315;3027684;-61
2022/06/07 09:22:25;;;;;;;14.70;2.30;;;;;;;27.19;29.66;99440.03;25130;1316;3026764;-60
2022/06/07 09:25:06;;;;;;;9.10;2.90;;;;;;;27.48;28.85;99441.17;25018;1314;3052390;-60
2022/06/07 09:27:35;;;;;;;7.40;2.10;;;;;;;27.56;28.99;99441.44;25102;1316;3053356;-61
2022/06/07 09:30:16;;;;;;;7.00;2.20;;;;;;;27.59;29.08;99435.63;25050;1316;3026564;-60
2022/06/07 09:32:49;;;;;;;4.90;2.20;;;;;;;27.63;29.32;99441.16;25077;1315;3052549;-58
2022/06/07 09:35:22;;;;;;;5.40;2.20;;;;;;;27.61;28.39;99440.62;25096;1315;3026401;-62
2022/06/07 09:38:00;;;;;;;4.80;2.20;;;;;;;27.26;28.65;99433.79;25106;1315;3050954;-59
2022/06/07 09:40:34;;;;;;;6.40;2.10;;;;;;;27.38;28.87;99434.01;25092;1315;3071273;-61
2022/06/07 09:43:08;;;;;;;7.90;2.10;;;;;;;27.66;28.85;99435.20;25095;1315;3049216;-60
2022/06/07 09:45:43;;;;;;;13.60;2.70;;;;;;;27.72;29.11;99437.10;25113;1316;3054528;-59
2022/06/07 09:48:25;;;;;;;14.60;2.30;;;;;;;27.78;29.04;99440.06;25104;1315;3053563;-60
2022/06/07 09:51:09;;;;;;;8.30;2.20;;;;;;;28.12;28.50;99436.23;25114;1316;3057295;-61
2022/06/07 09:53:41;;;;;;;6.90;2.20;;;;;;;28.36;27.76;99432.67;25034;1316;3049736;-60
2022/06/07 09:56:20;;;;;;;8.90;2.40;;;;;;;28.35;27.73;99431.77;25047;1316;3026626;-58
2022/06/07 09:58:57;;;;;;;8.50;2.10;;;;;;;28.23;27.73;99430.90;25063;1316;3052574;-62
2022/06/07 10:01:42;;;;;;;5.90;2.20;;;;;;;28.15;28.03;99431.53;25087;1316;3069745;-59
2022/06/07 10:04:40;;;;;;;7.70;2.10;;;;;;;28.23;28.41;99429.98;25138;1315;3052184;-61
2022/06/07 10:07:17;;;;;;;8.10;2.20;;;;;;;28.23;28.40;99433.77;25070;1316;3053806;-58
2022/06/07 10:10:03;;;;;;;5.70;2.10;;;;;;;28.24;28.00;99428.16;25073;1315;3052111;-63
2022/06/07 10:12:39;;;;;;;6.00;2.10;;;;;;;28.25;27.95;99428.45;25038;1316;3057163;-56
2022/06/07 10:15:29;;;;;;;11.30;2.10;;;;;;;28.34;28.00;99434.96;25085;1315;3053122;-57
2022/06/07 10:18:33;;;;;;;9.70;2.00;;;;;;;28.62;27.53;99430.05;25042;1315;3053394;-61
2022/06/07 10:21:09;;;;;;;13.80;2.30;;;;;;;28.85;27.26;99425.80;25022;1315;3052323;-61
2022/06/07 10:24:01;;;;;;;4.80;2.00;;;;;;;28.95;27.16;99425.01;25061;1315;3070948;-57
2022/06/07 10:26:45;;;;;;;4.10;2.00;;;;;;;29.05;26.87;99425.77;25088;1315;3051796;-57
2022/06/07 10:29:33;;;;;;;4.10;1.90;;;;;;;28.84;27.15;99424.30;25099;1315;3055268;-61
2022/06/07 10:32:31;;;;;;;8.10;1.80;;;;;;;29.00;26.71;99424.73;25129;1315;3055082;-61
2022/06/07 10:35:10;;;;;;;14.20;2.50;;;;;;;28.96;26.79;99425.16;24985;1315;3056003;-59
2022/06/07 10:38:06;;;;;;;4.50;2.20;;;;;;;29.01;26.69;99423.73;25080;1315;3050269;-60
2022/06/07 10:40:38;;;;;;;6.10;2.00;;;;;;;29.08;26.45;99418.34;25088;1316;3055166;-61
2022/06/07 10:43:26;;;;;;;3.70;1.80;;;;;;;29.08;26.26;99415.02;25162;1316;3053975;-62
2022/06/07 10:45:59;;;;;;;7.90;2.00;;;;;;;29.15;26.73;99411.19;25065;1316;3071405;-63
2022/06/07 10:48:38;;;;;;;9.20;1.80;;;;;;;29.21;26.61;99411.04;25100;1316;3049113;-62
2022/06/07 10:52:20;;;;;;;5.10;1.50;;;;;;;29.20;26.24;99410.63;25111;1316;3052744;-60
2022/06/07 10:54:04;;;;;;;7.80;1.80;;;;;;;29.19;26.44;99408.52;25091;1316;3054781;-59
2022/06/07 10:56:36;;;;;;;8.50;1.70;;;;;;;29.26;26.26;99403.69;25240;1315;3026931;-64
2022/06/07 10:59:16;;;;;;;6.40;1.80;;;;;;;29.20;26.64;99400.67;25073;1316;3026843;-62
2022/06/07 11:01:52;;;;;;;4.90;1.70;;;;;;;29.15;26.53;99396.00;25052;1315;3053819;-59
2022/06/07 11:10:24;;;;;;;9.40;2.60;;;;;;;28.93;26.18;99381.48;25057;1315;3051706;-62
2022/06/07 11:13:20;;;;;;;6.60;2.30;;;;;;;29.01;26.89;99374.34;25000;1315;3026988;-60
2022/06/07 11:16:18;;;;;;;3.50;1.90;;;;;;;29.23;27.14;99379.36;25061;1316;3054257;-60
2022/06/07 11:18:48;;;;;;;18.40;2.10;;;;;;;29.32;26.28;99376.95;25042;1315;3058969;-60
2022/06/07 11:21:40;;;;;;;7.10;2.30;;;;;;;29.43;26.61;99380.36;25114;1315;3026573;-62
2022/06/07 11:24:29;;;;;;;9.70;2.20;;;;;;;29.58;26.91;99378.48;25070;1315;3055092;-61
2022/06/07 11:27:19;;;;;;;7.00;1.80;;;;;;;29.86;25.45;99372.15;25111;1315;3055679;-61
2022/06/07 11:29:48;;;;;;;4.40;2.10;;;;;;;29.91;25.77;99369.95;25091;1315;3052894;-62
2022/06/07 11:32:36;;;;;;;9.20;2.30;;;;;;;30.06;25.52;99368.18;25073;1315;3026738;-60
2022/06/07 11:36:03;;;;;;;6.30;2.10;;;;;;;30.00;25.63;99366.73;25050;1316;3059550;-60
2022/06/07 11:38:35;;;;;;;8.30;2.20;;;;;;;30.05;25.65;99364.52;24917;1322;3050992;-61
2022/06/07 11:41:38;;;;;;;6.90;1.60;;;;;;;30.11;25.59;99364.13;25046;1315;3026750;-60
2022/06/07 11:44:12;;;;;;;12.60;4.30;;;;;;;30.16;25.23;99362.09;25117;1315;3055284;-60
2022/06/07 11:46:51;;;;;;;9.00;2.10;;;;;;;30.26;25.08;99364.73;25090;1316;3068249;-62
2022/06/07 11:49:23;;;;;;;9.30;2.30;;;;;;;30.33;25.35;99359.86;25075;1315;3049879;-59
2022/06/07 11:51:56;;;;;;;7.20;2.00;;;;;;;30.44;24.98;99359.59;25076;1315;3026584;-60
2022/06/07 11:54:28;;;;;;;5.30;2.20;;;;;;;30.40;25.11;99357.49;25382;1315;3026339;-60
2022/06/07 11:57:02;;;;;;;3.80;1.90;;;;;;;30.35;24.92;99346.63;25143;1315;3027175;-61
2022/06/07 11:59:43;;;;;;;5.30;2.20;;;;;;;30.29;24.52;99351.45;25098;1315;3050287;-61
2022/06/07 12:02:14;;;;;;;8.50;2.10;;;;;;;30.37;24.42;99345.02;25048;1316;3055103;-62
2022/06/07 12:04:44;;;;;;;4.50;2.30;;;;;;;30.58;24.84;99340.92;25080;1316;3026837;-59
2022/06/07 12:07:42;;;;;;;14.20;2.20;;;;;;;30.60;24.79;99343.95;25033;1315;3026394;-61
2022/06/07 12:10:17;;;;;;;12.10;2.20;;;;;;;30.80;24.52;99343.70;25092;1316;3052061;-63